Time;durP1;ratioP1;P1;durP2;ratioP2;P2;SDS_P1;SDS_P2;PMS_P1;PMS_P2;Temp;Humidity;BMP_temperature;BMP_pressure;BME280_temperature;BME280_humidity;BME280_pressure;Samples;Min_cycle;Max_cycle;Signal;HPM_P1;HPM_P2
2023/09/20 00:01:40;;;;;;;2.25;0.90;;;24.40;49.30;;;;;;5028452;28;20025;-53
2023/09/20 00:04:07;;;;;;;2.20;0.95;;;24.50;49.40;;;;;;5032528;28;20049;-52
2023/09/20 00:06:33;;;;;;;1.58;0.75;;;24.40;49.40;;;;;;5010130;28;20365;-49
2023/09/20 00:09:00;;;;;;;2.13;0.98;;;24.40;49.40;;;;;;5031125;28;20045;-51
2023/09/20 00:11:26;;;;;;;2.15;0.80;;;24.40;49.40;;;;;;5027683;28;20065;-49
2023/09/20 00:13:52;;;;;;;1.65;0.70;;;24.40;49.40;;;;;;5032202;28;20057;-50
2023/09/20 00:16:19;;;;;;;2.25;1.08;;;24.50;49.40;;;;;;5027964;28;20026;-52
2023/09/20 00:18:45;;;;;;;2.13;0.85;;;24.50;49.50;;;;;;5030094;28;20018;-54
2023/09/20 00:21:11;;;;;;;2.22;0.82;;;24.50;49.00;;;;;;5032081;28;20437;-51
2023/09/20 00:23:37;;;;;;;2.38;1.10;;;24.40;49.40;;;;;;5031165;28;20095;-50
2023/09/20 00:26:03;;;;;;;2.03;1.02;;;24.50;49.50;;;;;;5033183;28;20033;-52
2023/09/20 00:28:31;;;;;;;1.92;0.80;;;24.40;49.40;;;;;;5037607;28;20056;-53
2023/09/20 00:30:57;;;;;;;1.50;0.70;;;24.40;49.50;;;;;;5015322;28;20077;-48
2023/09/20 00:33:23;;;;;;;1.60;0.80;;;24.40;49.50;;;;;;5031185;28;20064;-50
2023/09/20 00:35:49;;;;;;;1.75;0.98;;;24.40;49.50;;;;;;5033470;28;20100;-52
2023/09/20 00:38:16;;;;;;;1.55;0.70;;;24.40;49.50;;;;;;5032483;28;20056;-49
2023/09/20 00:40:43;;;;;;;3.22;1.10;;;24.40;49.50;;;;;;5033376;28;20348;-50
2023/09/20 00:43:11;;;;;;;2.13;1.10;;;24.40;50.10;;;;;;5014077;28;20117;-51
2023/09/20 00:45:40;;;;;;;3.10;1.10;;;24.40;49.50;;;;;;5030121;28;20034;-52
2023/09/20 00:48:09;;;;;;;2.53;0.90;;;24.40;49.60;;;;;;5013759;28;20092;-49
2023/09/20 00:50:36;;;;;;;4.47;1.13;;;24.40;49.50;;;;;;5027886;28;20033;-54
2023/09/20 00:53:06;;;;;;;2.42;0.90;;;24.40;49.60;;;;;;5033559;28;20409;-53
2023/09/20 00:55:34;;;;;;;2.95;1.15;;;24.40;49.60;;;;;;5016821;28;20151;-47
2023/09/20 00:58:15;;;;;;;1.95;0.80;;;24.40;49.60;;;;;;5013790;28;20030;-49
2023/09/20 01:00:43;;;;;;;1.42;0.80;;;24.40;49.60;;;;;;5011505;28;20426;-50
2023/09/20 01:03:11;;;;;;;1.55;0.63;;;24.40;49.60;;;;;;5028939;28;20040;-50
2023/09/20 01:05:37;;;;;;;1.98;1.00;;;24.40;49.60;;;;;;5030225;28;20029;-48
2023/09/20 01:08:06;;;;;;;2.83;1.10;;;24.40;49.70;;;;;;5041344;28;20029;-47
2023/09/20 01:10:33;;;;;;;3.42;1.52;;;24.40;49.70;;;;;;5037160;28;20048;-49
2023/09/20 01:13:02;;;;;;;2.28;1.00;;;24.40;49.70;;;;;;5014684;28;20029;-50
2023/09/20 01:15:29;;;;;;;3.00;1.00;;;24.40;49.70;;;;;;5032312;28;20104;-51
2023/09/20 01:17:57;;;;;;;2.38;1.00;;;24.40;49.70;;;;;;5035975;28;20029;-48
2023/09/20 01:20:24;;;;;;;1.58;0.90;;;24.40;49.70;;;;;;5032586;28;20076;-50
2023/09/20 01:22:54;;;;;;;1.65;0.90;;;24.40;49.70;;;;;;5035900;28;20021;-49
2023/09/20 01:25:22;;;;;;;2.30;0.90;;;24.40;49.70;;;;;;5033419;28;20325;-51
2023/09/20 01:27:50;;;;;;;1.83;0.80;;;24.40;49.80;;;;;;5042843;28;20049;-44
2023/09/20 01:30:16;;;;;;;2.67;1.02;;;24.40;49.80;;;;;;5033974;28;20044;-48
2023/09/20 01:32:43;;;;;;;2.13;1.00;;;24.40;49.70;;;;;;5034794;28;20025;-53
2023/09/20 01:35:10;;;;;;;1.95;1.10;;;24.40;49.70;;;;;;5037428;28;20060;-48
2023/09/20 01:37:37;;;;;;;2.20;1.25;;;24.40;49.80;;;;;;5031727;28;20374;-51
2023/09/20 01:40:18;;;;;;;2.25;0.73;;;24.40;49.80;;;;;;5036820;28;20029;-45
2023/09/20 01:42:48;;;;;;;1.63;0.85;;;24.40;49.80;;;;;;5014696;28;20036;-49
2023/09/20 01:45:18;;;;;;;1.80;1.00;;;24.40;49.80;;;;;;5030547;28;20092;-51
2023/09/20 01:48:00;;;;;;;4.63;1.10;;;24.40;49.80;;;;;;5021993;28;20337;-50
2023/09/20 01:50:27;;;;;;;1.50;0.90;;;24.40;49.80;;;;;;5030946;28;20030;-46
2023/09/20 01:52:57;;;;;;;2.13;1.05;;;24.40;49.80;;;;;;5017415;28;20198;-46
2023/09/20 01:55:25;;;;;;;1.13;0.70;;;24.40;49.80;;;;;;5032759;28;20108;-47
2023/09/20 01:57:52;;;;;;;1.92;0.93;;;24.40;49.80;;;;;;5017558;28;20089;-48
2023/09/20 02:00:36;;;;;;;1.83;0.70;;;24.40;49.80;;;;;;5017032;28;20025;-53
2023/09/20 02:03:08;;;;;;;2.17;1.00;;;24.30;49.80;;;;;;5003180;28;20057;-46
2023/09/20 02:05:36;;;;;;;1.92;0.80;;;24.40;49.90;;;;;;5012981;28;20076;-53
2023/09/20 02:08:03;;;;;;;2.03;1.00;;;24.40;49.90;;;;;;5015686;28;20365;-49
2023/09/20 02:10:31;;;;;;;2.47;1.00;;;24.40;49.90;;;;;;5014573;28;20223;-55
2023/09/20 02:12:59;;;;;;;2.38;0.80;;;24.30;49.80;;;;;;5004167;28;20183;-47
2023/09/20 02:15:26;;;;;;;2.03;0.95;;;24.40;49.90;;;;;;5036147;28;20025;-52
2023/09/20 02:17:53;;;;;;;1.67;0.82;;;24.30;49.80;;;;;;5034549;28;20034;-49
2023/09/20 02:20:20;;;;;;;2.05;0.98;;;24.40;49.90;;;;;;5031080;28;20364;-50
2023/09/20 02:22:48;;;;;;;2.00;1.00;;;24.30;49.80;;;;;;5034670;28;20017;-52
2023/09/20 02:25:20;;;;;;;3.42;1.25;;;24.30;49.90;;;;;;5030982;28;20091;-51
2023/09/20 02:27:51;;;;;;;2.65;1.20;;;24.30;49.90;;;;;;5030056;28;20037;-47
2023/09/20 02:30:24;;;;;;;1.27;0.90;;;24.40;49.90;;;;;;5031616;28;20025;-49
2023/09/20 02:32:57;;;;;;;3.15;1.20;;;24.40;49.90;;;;;;5042159;28;20025;-53
2023/09/20 02:35:30;;;;;;;1.17;0.80;;;24.30;50.00;;;;;;5034012;28;20068;-52
2023/09/20 02:37:57;;;;;;;2.17;0.98;;;24.30;49.90;;;;;;5015528;28;20034;-48
2023/09/20 02:40:26;;;;;;;2.63;1.25;;;24.30;49.90;;;;;;5017366;28;20325;-46
2023/09/20 02:43:03;;;;;;;2.55;1.10;;;24.30;49.90;;;;;;5006694;28;20034;-47
2023/09/20 02:45:30;;;;;;;1.95;1.10;;;24.30;49.90;;;;;;5033284;28;20054;-44
2023/09/20 02:48:03;;;;;;;2.42;0.88;;;24.30;49.90;;;;;;5013709;28;20052;-56
2023/09/20 02:50:29;;;;;;;3.03;1.30;;;24.30;50.00;;;;;;5040168;28;20103;-51
2023/09/20 02:52:56;;;;;;;2.10;0.80;;;24.30;50.00;;;;;;5032441;28;20421;-52
2023/09/20 02:55:23;;;;;;;2.50;0.90;;;24.30;50.00;;;;;;5015339;28;20440;-50
2023/09/20 02:57:52;;;;;;;2.85;1.10;;;24.30;50.00;;;;;;4997611;28;20022;-49
2023/09/20 03:00:21;;;;;;;1.52;0.80;;;24.30;50.00;;;;;;5016100;28;20032;-52
2023/09/20 03:02:53;;;;;;;2.70;1.00;;;24.30;50.00;;;;;;5016394;28;20120;-51
2023/09/20 03:05:28;;;;;;;2.47;0.93;;;24.30;50.00;;;;;;5018581;28;20016;-48
2023/09/20 03:07:55;;;;;;;2.38;1.00;;;24.30;50.00;;;;;;5014904;28;20384;-50
2023/09/20 03:10:22;;;;;;;1.48;0.75;;;24.30;50.00;;;;;;5028242;28;20032;-51
2023/09/20 03:12:51;;;;;;;1.13;0.70;;;24.30;50.10;;;;;;5040662;28;20401;-52
2023/09/20 03:15:23;;;;;;;0.98;0.60;;;24.30;50.10;;;;;;5009174;28;20032;-53
2023/09/20 03:17:52;;;;;;;2.78;0.85;;;24.30;50.00;;;;;;5036344;28;20155;-56
2023/09/20 03:20:32;;;;;;;2.38;1.00;;;24.30;50.10;;;;;;5029402;28;20083;-53
2023/09/20 03:23:05;;;;;;;1.48;1.00;;;24.30;50.10;;;;;;5013216;28;20021;-51
2023/09/20 03:25:37;;;;;;;2.35;0.93;;;24.30;50.10;;;;;;5016410;28;20026;-50
2023/09/20 03:28:09;;;;;;;2.22;1.00;;;24.30;50.10;;;;;;4998759;28;20052;-46
2023/09/20 03:30:39;;;;;;;2.22;1.17;;;24.30;50.10;;;;;;5014387;28;20420;-54
2023/09/20 03:33:08;;;;;;;2.13;1.00;;;24.30;50.20;;;;;;4996007;28;20049;-48
2023/09/20 03:35:35;;;;;;;1.33;0.70;;;24.30;50.20;;;;;;5032081;28;20040;-48
2023/09/20 03:38:02;;;;;;;1.15;0.77;;;24.20;50.20;;;;;;5008884;28;20064;-53
2023/09/20 03:40:29;;;;;;;2.50;1.15;;;24.30;50.20;;;;;;5014537;28;20025;-51
2023/09/20 03:42:58;;;;;;;1.30;0.85;;;24.20;50.20;;;;;;5011632;28;20030;-44
2023/09/20 03:45:28;;;;;;;2.50;1.00;;;24.30;50.20;;;;;;5032794;28;20029;-47
2023/09/20 03:47:56;;;;;;;1.48;0.90;;;24.20;50.20;;;;;;5015497;28;20072;-49
2023/09/20 03:50:23;;;;;;;1.55;0.90;;;24.20;50.20;;;;;;5039335;28;20028;-44
2023/09/20 03:52:49;;;;;;;1.80;0.98;;;24.20;50.20;;;;;;5012724;28;20411;-46
2023/09/20 03:55:19;;;;;;;1.52;0.73;;;24.20;50.20;;;;;;5041899;28;20053;-52
2023/09/20 03:57:46;;;;;;;1.60;0.95;;;24.20;50.20;;;;;;5016958;28;20060;-44
2023/09/20 04:00:18;;;;;;;2.05;0.95;;;24.30;50.30;;;;;;5023108;28;20392;-46
2023/09/20 04:02:48;;;;;;;1.23;0.70;;;24.20;50.30;;;;;;5012968;28;20033;-52
2023/09/20 04:05:16;;;;;;;1.88;0.88;;;24.20;50.40;;;;;;5011317;28;20033;-47
2023/09/20 04:07:44;;;;;;;1.40;0.70;;;24.20;50.30;;;;;;5026739;28;20041;-51
2023/09/20 04:10:11;;;;;;;1.92;0.93;;;24.20;50.30;;;;;;5028093;28;20026;-55
2023/09/20 04:12:38;;;;;;;1.80;0.95;;;24.20;50.40;;;;;;5031863;28;20191;-54
2023/09/20 04:15:05;;;;;;;1.40;1.23;;;24.20;50.40;;;;;;5037241;28;20061;-46
2023/09/20 04:17:35;;;;;;;1.63;0.77;;;24.20;50.40;;;;;;5031121;28;20104;-54
2023/09/20 04:20:05;;;;;;;2.22;0.90;;;24.20;50.40;;;;;;5001760;28;20421;-48
2023/09/20 04:22:32;;;;;;;1.77;0.90;;;24.20;50.50;;;;;;5014354;28;20029;-50
2023/09/20 04:25:01;;;;;;;2.42;0.90;;;24.20;50.50;;;;;;5027273;28;21904;-50
2023/09/20 04:27:28;;;;;;;2.08;0.95;;;24.20;50.50;;;;;;5011434;28;20042;-47
2023/09/20 04:29:55;;;;;;;2.67;1.10;;;24.20;50.50;;;;;;5014777;28;20025;-52
2023/09/20 04:32:21;;;;;;;2.08;0.88;;;24.20;50.60;;;;;;5015082;28;20025;-48
2023/09/20 04:34:53;;;;;;;1.83;0.90;;;24.20;50.60;;;;;;5014650;28;20117;-48
2023/09/20 04:37:20;;;;;;;1.83;0.90;;;24.20;50.60;;;;;;5015916;28;20105;-50
2023/09/20 04:39:46;;;;;;;1.15;0.80;;;24.20;50.60;;;;;;5011873;28;20036;-50
2023/09/20 04:42:13;;;;;;;1.50;0.90;;;24.20;50.70;;;;;;5014324;28;20064;-53
2023/09/20 04:44:41;;;;;;;1.85;0.80;;;24.20;50.70;;;;;;5014322;28;20350;-47
2023/09/20 04:47:10;;;;;;;1.70;0.90;;;24.20;50.70;;;;;;5020517;28;20584;-52
2023/09/20 04:49:37;;;;;;;1.52;1.00;;;24.20;50.70;;;;;;5013178;28;20103;-47
2023/09/20 04:52:08;;;;;;;2.58;1.35;;;24.20;50.70;;;;;;5002040;28;20045;-49
2023/09/20 04:54:34;;;;;;;2.42;1.02;;;24.20;50.80;;;;;;5015464;28;20108;-52
2023/09/20 04:57:01;;;;;;;2.03;0.98;;;24.20;50.80;;;;;;5026988;28;20516;-48
2023/09/20 04:59:27;;;;;;;2.63;1.20;;;24.20;50.80;;;;;;5015909;28;20357;-54
2023/09/20 05:01:54;;;;;;;3.65;1.30;;;24.20;50.80;;;;;;5036716;28;20132;-48
2023/09/20 05:04:21;;;;;;;2.13;0.88;;;24.20;50.80;;;;;;5012688;28;20055;-49
2023/09/20 05:06:47;;;;;;;2.15;0.90;;;24.20;50.80;;;;;;5015204;28;20453;-52
2023/09/20 05:09:13;;;;;;;2.10;0.98;;;24.20;50.90;;;;;;5014844;28;20102;-48
2023/09/20 05:11:39;;;;;;;1.38;0.90;;;24.20;50.90;;;;;;5028777;28;20052;-52
2023/09/20 05:14:05;;;;;;;1.45;0.93;;;24.20;50.90;;;;;;5014818;28;20116;-48
2023/09/20 05:16:32;;;;;;;2.78;1.00;;;24.20;50.90;;;;;;5021242;28;20022;-51
2023/09/20 05:18:59;;;;;;;2.22;0.98;;;24.20;50.90;;;;;;5017561;28;20137;-49
2023/09/20 05:21:25;;;;;;;1.95;1.10;;;24.20;50.90;;;;;;5017048;28;20504;-49
2023/09/20 05:23:51;;;;;;;1.45;0.95;;;24.20;50.90;;;;;;5017966;28;20086;-54
2023/09/20 05:26:21;;;;;;;1.65;0.90;;;24.20;50.90;;;;;;5026134;28;20084;-48
2023/09/20 05:28:47;;;;;;;2.28;1.00;;;24.20;50.90;;;;;;5014298;28;20409;-48
2023/09/20 05:31:14;;;;;;;1.52;0.95;;;24.20;50.90;;;;;;5014974;28;20052;-51
2023/09/20 05:33:40;;;;;;;1.83;1.00;;;24.20;50.90;;;;;;5034029;28;20112;-51
2023/09/20 05:36:07;;;;;;;1.60;1.02;;;24.20;51.00;;;;;;5034429;28;20116;-54
2023/09/20 05:38:32;;;;;;;2.97;1.13;;;24.10;50.90;;;;;;5034640;28;20128;-50
2023/09/20 05:40:58;;;;;;;1.90;0.90;;;24.10;51.00;;;;;;5035656;28;20029;-45
2023/09/20 05:43:24;;;;;;;2.65;1.23;;;24.20;51.00;;;;;;5031561;28;20060;-47
2023/09/20 05:45:50;;;;;;;3.83;1.10;;;24.20;51.00;;;;;;5033569;28;20032;-50
2023/09/20 05:48:16;;;;;;;2.83;1.35;;;24.10;50.90;;;;;;5013724;28;20064;-50
2023/09/20 05:50:42;;;;;;;1.63;0.88;;;24.10;50.90;;;;;;5003239;28;20032;-51
2023/09/20 05:53:12;;;;;;;1.58;1.05;;;24.20;51.00;;;;;;5043860;28;20063;-51
2023/09/20 05:55:38;;;;;;;1.50;0.90;;;24.10;51.00;;;;;;5048393;28;20024;-53
2023/09/20 05:58:05;;;;;;;2.30;0.90;;;24.20;51.00;;;;;;5044640;28;20059;-49
2023/09/20 06:00:33;;;;;;;3.70;1.00;;;24.10;51.00;;;;;;5045248;28;20077;-53
2023/09/20 06:02:59;;;;;;;1.40;0.93;;;24.10;51.00;;;;;;5042871;28;20066;-50
2023/09/20 06:05:28;;;;;;;1.13;0.80;;;24.10;51.00;;;;;;5028226;28;20028;-52
2023/09/20 06:07:54;;;;;;;1.73;0.88;;;24.10;51.60;;;;;;5021190;28;20129;-49
2023/09/20 06:10:22;;;;;;;3.22;1.23;;;24.20;51.10;;;;;;5047223;28;20100;-51
2023/09/20 06:12:50;;;;;;;1.88;0.80;;;24.20;51.10;;;;;;5046162;28;20036;-51
2023/09/20 06:15:16;;;;;;;2.65;1.10;;;24.20;51.10;;;;;;5046723;28;20087;-51
2023/09/20 06:17:43;;;;;;;2.55;1.23;;;24.20;51.10;;;;;;5025203;28;20025;-54
2023/09/20 06:20:18;;;;;;;3.67;1.23;;;24.20;51.10;;;;;;5048231;28;20135;-51
2023/09/20 06:22:48;;;;;;;2.60;1.30;;;24.20;51.10;;;;;;5047711;28;20036;-48
2023/09/20 06:25:15;;;;;;;2.00;0.90;;;24.20;51.10;;;;;;5042929;28;20033;-54
2023/09/20 06:27:41;;;;;;;1.77;0.88;;;24.20;51.10;;;;;;5045352;28;20107;-50
2023/09/20 06:30:17;;;;;;;2.67;1.10;;;24.10;51.10;;;;;;5041187;28;20094;-50
2023/09/20 06:32:44;;;;;;;2.53;0.90;;;24.20;51.10;;;;;;5042962;28;20052;-49
2023/09/20 06:35:11;;;;;;;1.85;0.93;;;24.20;51.20;;;;;;5042584;28;20119;-52
2023/09/20 06:37:40;;;;;;;2.03;0.90;;;24.20;51.20;;;;;;5045431;28;20437;-51
2023/09/20 06:40:22;;;;;;;1.95;0.93;;;24.20;51.20;;;;;;5039994;28;20036;-48
2023/09/20 06:42:52;;;;;;;1.70;0.88;;;24.20;51.20;;;;;;5048329;28;20052;-46
2023/09/20 06:45:22;;;;;;;2.22;1.20;;;24.20;51.20;;;;;;5043420;28;20182;-48
2023/09/20 06:47:48;;;;;;;2.50;0.95;;;24.20;51.20;;;;;;5046234;28;20390;-54
2023/09/20 06:50:14;;;;;;;1.85;1.00;;;24.20;51.20;;;;;;5021391;28;20052;-45
2023/09/20 06:52:42;;;;;;;2.63;1.10;;;24.20;51.20;;;;;;5043339;28;20421;-47
2023/09/20 06:55:13;;;;;;;1.83;0.90;;;24.20;51.20;;;;;;5002623;28;20840;-51
2023/09/20 06:57:40;;;;;;;2.60;0.82;;;24.20;51.20;;;;;;5041698;28;20123;-47
2023/09/20 07:00:21;;;;;;;1.48;0.80;;;24.20;51.20;;;;;;5042572;28;20052;-46
2023/09/20 07:02:49;;;;;;;1.88;1.00;;;24.30;51.30;;;;;;5029246;28;20036;-46
2023/09/20 07:05:17;;;;;;;1.88;0.95;;;24.20;51.30;;;;;;5023003;28;20412;-49
2023/09/20 07:07:45;;;;;;;1.98;0.73;;;24.30;51.40;;;;;;5012634;28;20120;-47
2023/09/20 07:10:10;;;;;;;1.55;0.88;;;24.30;51.40;;;;;;5033529;28;20037;-50
2023/09/20 07:12:38;;;;;;;2.08;1.10;;;24.20;51.30;;;;;;5033294;28;20342;-48
2023/09/20 07:15:08;;;;;;;1.63;0.90;;;24.30;51.40;;;;;;5028711;28;20029;-47
2023/09/20 07:17:35;;;;;;;1.27;0.85;;;24.30;51.40;;;;;;5041378;28;20084;-49
2023/09/20 07:20:09;;;;;;;2.30;1.10;;;24.30;51.40;;;;;;5044030;28;20391;-55
2023/09/20 07:22:38;;;;;;;1.38;0.70;;;24.30;51.40;;;;;;5047864;28;20309;-50
2023/09/20 07:25:06;;;;;;;2.10;0.90;;;24.30;51.40;;;;;;5045503;28;20033;-50
2023/09/20 07:27:32;;;;;;;2.17;1.10;;;24.30;51.40;;;;;;5044418;28;20033;-51
2023/09/20 07:30:01;;;;;;;1.55;0.82;;;24.30;51.40;;;;;;5046782;28;20123;-49
2023/09/20 07:32:26;;;;;;;1.52;0.80;;;24.30;51.40;;;;;;5043699;28;20027;-56
2023/09/20 07:34:59;;;;;;;2.00;0.90;;;24.30;51.40;;;;;;5022308;28;20402;-47
2023/09/20 07:37:25;;;;;;;1.58;0.90;;;24.30;51.40;;;;;;5040874;28;20107;-49
2023/09/20 07:39:52;;;;;;;1.83;0.80;;;24.30;51.50;;;;;;5034754;28;20048;-45
2023/09/20 07:42:20;;;;;;;1.98;1.08;;;24.30;51.50;;;;;;5034182;28;20033;-55
2023/09/20 07:44:46;;;;;;;1.67;0.90;;;24.30;51.50;;;;;;5037380;28;20033;-47
2023/09/20 07:47:13;;;;;;;1.00;0.63;;;24.40;52.10;;;;;;5026255;28;20045;-48
2023/09/20 07:49:39;;;;;;;2.28;1.00;;;24.40;51.50;;;;;;5029543;28;20105;-51
2023/09/20 07:52:06;;;;;;;1.55;0.82;;;24.40;51.50;;;;;;5030436;28;20029;-49
2023/09/20 07:54:32;;;;;;;1.73;1.05;;;24.40;51.50;;;;;;5029174;28;20033;-50
2023/09/20 07:56:57;;;;;;;1.92;0.70;;;24.40;51.50;;;;;;5040521;28;20033;-52
2023/09/20 07:59:26;;;;;;;1.27;0.70;;;24.40;51.50;;;;;;5027656;28;20025;-44
2023/09/20 08:01:52;;;;;;;2.45;0.98;;;24.40;51.50;;;;;;5021456;28;20021;-48
2023/09/20 08:04:18;;;;;;;1.73;0.93;;;24.40;51.50;;;;;;5045286;28;20233;-47
2023/09/20 08:06:44;;;;;;;2.28;1.10;;;24.40;51.50;;;;;;5024347;28;20163;-47
2023/09/20 08:09:10;;;;;;;1.48;0.80;;;24.40;51.50;;;;;;5028480;28;20096;-53
2023/09/20 08:11:37;;;;;;;1.42;0.90;;;24.40;51.60;;;;;;5041253;28;20029;-52
2023/09/20 08:14:04;;;;;;;2.10;0.80;;;24.40;51.60;;;;;;5044631;28;20033;-45
2023/09/20 08:16:32;;;;;;;2.15;0.80;;;24.40;51.60;;;;;;5039039;28;20384;-54
2023/09/20 08:21:34;;;;;;;1.90;0.90;;;24.40;51.60;;;;;;5029060;28;20025;-48
2023/09/20 09:00:22;;;;;;;1.40;0.75;;;24.50;51.80;;;;;;5040332;28;20191;-55
2023/09/20 09:02:57;;;;;;;1.90;0.73;;;24.50;51.80;;;;;;5044599;28;20062;-50
2023/09/20 09:05:27;;;;;;;1.40;0.80;;;24.50;51.70;;;;;;5024184;28;20040;-55
2023/09/20 09:07:54;;;;;;;1.50;0.80;;;24.50;51.80;;;;;;5018474;28;20103;-56
2023/09/20 09:10:20;;;;;;;1.73;0.82;;;24.50;51.80;;;;;;5042028;28;20033;-52
2023/09/20 09:12:46;;;;;;;1.35;0.80;;;24.50;51.80;;;;;;5044975;28;20112;-53
2023/09/20 09:15:16;;;;;;;1.58;0.80;;;24.50;51.80;;;;;;5041942;28;20082;-54
2023/09/20 09:17:49;;;;;;;1.17;0.90;;;24.60;51.80;;;;;;5040497;28;20056;-48
2023/09/20 09:20:19;;;;;;;1.97;0.80;;;24.60;51.80;;;;;;5034280;28;20044;-52
2023/09/20 09:22:45;;;;;;;1.23;0.80;;;24.60;51.80;;;;;;5044927;28;20119;-52
2023/09/20 09:25:12;;;;;;;2.45;0.90;;;24.60;51.80;;;;;;5044778;28;20030;-51
2023/09/20 09:27:39;;;;;;;1.00;0.70;;;24.60;51.80;;;;;;5046285;28;20044;-51
2023/09/20 09:30:10;;;;;;;0.70;0.60;;;24.60;51.80;;;;;;5038724;28;20032;-54
2023/09/20 09:32:36;;;;;;;1.77;0.80;;;24.60;51.80;;;;;;5042282;28;20100;-47
2023/09/20 09:35:07;;;;;;;1.65;0.80;;;24.60;51.80;;;;;;5039417;28;20381;-51
2023/09/20 09:37:34;;;;;;;1.50;0.90;;;24.60;51.80;;;;;;5024492;28;20033;-54
2023/09/20 09:40:02;;;;;;;1.95;0.90;;;24.60;51.80;;;;;;5028780;28;20125;-49
2023/09/20 09:42:30;;;;;;;1.88;1.10;;;24.60;51.80;;;;;;5054159;28;20136;-55
2023/09/20 09:44:56;;;;;;;2.13;0.88;;;24.60;51.80;;;;;;5054697;28;20101;-45
2023/09/20 09:47:24;;;;;;;1.95;0.90;;;24.60;51.80;;;;;;5054393;28;20448;-52
2023/09/20 09:49:53;;;;;;;2.83;0.80;;;24.60;52.00;;;;;;5038622;28;20140;-53
2023/09/20 09:52:23;;;;;;;1.02;0.70;;;24.70;52.10;;;;;;5016348;28;20535;-54
2023/09/20 09:54:51;;;;;;;1.90;0.90;;;24.70;52.10;;;;;;5034458;28;20115;-48
2023/09/20 09:57:18;;;;;;;3.83;1.00;;;24.70;52.20;;;;;;5034457;28;20030;-55
2023/09/20 09:59:48;;;;;;;1.90;1.00;;;24.70;52.20;;;;;;5034451;28;20170;-53
2023/09/20 10:02:19;;;;;;;2.08;0.90;;;24.70;52.20;;;;;;5033993;28;20033;-50
2023/09/20 10:05:00;;;;;;;4.85;1.20;;;24.70;52.30;;;;;;5033138;28;20172;-47
2023/09/20 10:07:36;;;;;;;1.40;1.10;;;24.80;52.20;;;;;;5039479;28;20114;-49
2023/09/20 10:10:12;;;;;;;1.65;0.90;;;24.80;52.20;;;;;;5035121;28;20167;-55
2023/09/20 10:12:39;;;;;;;3.60;1.40;;;24.70;52.70;;;;;;5029576;28;20519;-49
2023/09/20 10:15:08;;;;;;;1.98;1.30;;;24.70;52.00;;;;;;5014232;28;20115;-52
2023/09/20 10:17:34;;;;;;;1.73;0.95;;;24.80;52.00;;;;;;5031595;28;20037;-55
2023/09/20 10:20:07;;;;;;;2.17;1.20;;;24.80;51.90;;;;;;5053649;28;20025;-54
2023/09/20 10:22:41;;;;;;;1.58;1.05;;;24.80;51.80;;;;;;5053953;28;20040;-47
2023/09/20 10:25:28;;;;;;;3.78;1.08;;;24.80;51.70;;;;;;5053716;28;20037;-51
2023/09/20 10:27:54;;;;;;;2.90;1.13;;;24.80;51.60;;;;;;5023382;28;20068;-52
2023/09/20 10:30:21;;;;;;;1.88;1.13;;;24.80;51.60;;;;;;5016334;28;20034;-61
2023/09/20 10:32:59;;;;;;;2.95;1.33;;;24.80;51.60;;;;;;5038810;28;20029;-50
2023/09/20 10:35:33;;;;;;;1.92;1.10;;;24.80;51.50;;;;;;5053599;28;20029;-49
2023/09/20 10:38:07;;;;;;;;;;;24.80;51.50;;;;;;5053995;28;20146;-50
2023/09/20 10:40:45;;;;;;;2.05;1.10;;;24.90;51.50;;;;;;5053996;28;19925;-53
2023/09/20 10:43:12;;;;;;;1.48;0.98;;;24.80;51.40;;;;;;5052530;28;20056;-51
2023/09/20 10:45:39;;;;;;;2.88;1.13;;;24.80;51.40;;;;;;5029838;28;20025;-50
2023/09/20 10:48:12;;;;;;;2.20;1.10;;;24.90;51.50;;;;;;5032573;28;20080;-53
2023/09/20 10:50:49;;;;;;;1.67;1.07;;;24.90;51.40;;;;;;5033178;28;20227;-54
2023/09/20 10:53:19;;;;;;;1.90;1.20;;;24.90;51.40;;;;;;5048523;28;20276;-49
2023/09/20 10:55:49;;;;;;;2.15;1.10;;;24.90;51.40;;;;;;5033000;28;20037;-53
2023/09/20 10:58:23;;;;;;;2.22;1.20;;;24.90;51.40;;;;;;5032361;28;20087;-51
2023/09/20 11:00:50;;;;;;;2.78;0.90;;;24.90;51.40;;;;;;5027642;28;20088;-52
2023/09/20 11:03:18;;;;;;;1.55;0.95;;;24.90;51.40;;;;;;5028437;28;20113;-47
2023/09/20 11:05:44;;;;;;;1.20;0.88;;;24.90;51.40;;;;;;5033499;28;20520;-49
2023/09/20 11:08:13;;;;;;;1.35;1.02;;;24.90;51.40;;;;;;5044114;28;20353;-52
2023/09/20 11:10:49;;;;;;;1.52;1.00;;;25.00;51.40;;;;;;5036573;28;20361;-52
2023/09/20 11:13:19;;;;;;;1.48;0.95;;;24.90;51.30;;;;;;5033650;28;20036;-48
2023/09/20 11:15:46;;;;;;;2.47;1.05;;;25.00;51.30;;;;;;5029754;28;20127;-51
2023/09/20 11:18:19;;;;;;;1.35;0.85;;;25.00;51.30;;;;;;5030767;28;20470;-49
2023/09/20 11:20:51;;;;;;;1.73;0.88;;;25.00;51.20;;;;;;5029198;28;20036;-48
2023/09/20 11:23:17;;;;;;;1.42;0.85;;;25.00;51.20;;;;;;5029047;28;20123;-51
2023/09/20 11:25:43;;;;;;;1.83;0.90;;;25.00;51.20;;;;;;5030836;28;20112;-48
2023/09/20 11:28:10;;;;;;;1.30;0.80;;;25.00;51.20;;;;;;5026123;28;20389;-49
2023/09/20 11:30:36;;;;;;;2.10;1.05;;;25.00;51.20;;;;;;5031441;28;20085;-53
2023/09/20 11:33:03;;;;;;;2.15;1.10;;;25.00;51.20;;;;;;5025822;28;20040;-55
2023/09/20 11:35:34;;;;;;;2.00;1.00;;;25.10;51.30;;;;;;5030386;28;20036;-52
2023/09/20 11:38:08;;;;;;;1.45;0.88;;;25.10;51.30;;;;;;5009790;28;20324;-51
2023/09/20 11:40:41;;;;;;;1.58;0.80;;;25.20;51.30;;;;;;5025278;28;20060;-55
2023/09/20 11:43:12;;;;;;;1.38;0.90;;;25.30;51.30;;;;;;5034766;28;20312;-54
2023/09/20 11:45:41;;;;;;;1.35;0.70;;;25.30;51.20;;;;;;5021893;28;20033;-51
2023/09/20 11:48:15;;;;;;;1.35;0.90;;;25.40;51.10;;;;;;5035884;28;20056;-55
2023/09/20 11:50:44;;;;;;;1.88;0.80;;;25.50;51.00;;;;;;5028831;28;20029;-52
2023/09/20 11:53:15;;;;;;;1.08;0.80;;;25.60;50.90;;;;;;5012876;28;20033;-55
2023/09/20 11:55:43;;;;;;;2.13;0.82;;;25.60;50.80;;;;;;5029677;28;20033;-50
2023/09/20 11:58:10;;;;;;;2.85;0.80;;;25.70;50.70;;;;;;5029090;28;20053;-52
2023/09/20 12:00:36;;;;;;;1.38;0.90;;;25.80;50.60;;;;;;5013406;28;20112;-48
2023/09/20 12:03:04;;;;;;;1.42;0.80;;;25.80;50.50;;;;;;5028553;28;20104;-53
2023/09/20 12:05:32;;;;;;;1.63;0.80;;;25.90;50.40;;;;;;5025120;28;20078;-54
2023/09/20 12:08:00;;;;;;;1.10;0.63;;;26.00;50.40;;;;;;5026255;28;20055;-54
2023/09/20 12:10:28;;;;;;;1.60;0.73;;;26.00;50.20;;;;;;5028848;28;20025;-52
2023/09/20 12:12:54;;;;;;;1.50;0.73;;;26.10;50.20;;;;;;5033555;28;20101;-49
2023/09/20 12:15:23;;;;;;;1.17;0.70;;;26.10;50.00;;;;;;5036516;28;20044;-51
2023/09/20 12:17:55;;;;;;;1.52;0.70;;;26.20;49.90;;;;;;5010721;28;20397;-48
2023/09/20 12:20:24;;;;;;;2.00;0.80;;;26.20;49.70;;;;;;5012918;28;20109;-51
2023/09/20 12:22:51;;;;;;;0.93;0.80;;;26.20;49.50;;;;;;5024428;28;20038;-49
2023/09/20 12:25:17;;;;;;;1.50;0.82;;;26.30;49.30;;;;;;5048974;28;20142;-53
2023/09/20 12:27:45;;;;;;;0.80;0.63;;;26.30;49.30;;;;;;5052131;28;20044;-52
2023/09/20 12:30:13;;;;;;;1.40;0.70;;;26.30;49.30;;;;;;5009501;28;20052;-50
2023/09/20 12:32:43;;;;;;;1.05;0.60;;;26.30;49.30;;;;;;5036127;28;20039;-53
2023/09/20 12:35:12;;;;;;;1.92;0.85;;;26.30;49.30;;;;;;5019221;28;20044;-58
2023/09/20 12:37:39;;;;;;;0.95;0.70;;;26.30;49.30;;;;;;5032476;28;20068;-58
2023/09/20 12:40:08;;;;;;;1.42;0.90;;;26.30;49.30;;;;;;5014599;28;20037;-52
2023/09/20 12:42:35;;;;;;;1.77;0.98;;;26.30;49.30;;;;;;5025922;28;20049;-54
2023/09/20 12:45:07;;;;;;;1.58;0.60;;;26.30;49.30;;;;;;5042128;28;20085;-57
2023/09/20 12:47:39;;;;;;;0.63;0.60;;;26.30;49.30;;;;;;5035719;28;20068;-56
2023/09/20 12:50:12;;;;;;;1.42;0.90;;;26.40;49.30;;;;;;5019462;28;20424;-55
2023/09/20 12:52:39;;;;;;;1.10;0.80;;;26.40;49.10;;;;;;5026839;28;20040;-52
2023/09/20 12:55:06;;;;;;;1.73;0.70;;;26.50;49.10;;;;;;5032044;28;20095;-51
2023/09/20 12:57:32;;;;;;;1.00;0.63;;;26.50;49.00;;;;;;5015041;28;20057;-56
2023/09/20 13:00:00;;;;;;;2.42;0.70;;;26.50;48.90;;;;;;5038666;28;20152;-55
2023/09/20 13:02:27;;;;;;;1.67;0.88;;;26.50;48.80;;;;;;5017763;28;20049;-54
2023/09/20 13:04:55;;;;;;;2.92;0.85;;;26.50;48.70;;;;;;5039187;28;20088;-53
2023/09/20 13:07:22;;;;;;;1.60;0.70;;;26.60;48.70;;;;;;5017688;28;20056;-47
2023/09/20 13:09:47;;;;;;;1.05;0.77;;;26.60;48.60;;;;;;5033790;28;20033;-49
2023/09/20 13:12:15;;;;;;;1.20;0.80;;;26.60;48.50;;;;;;5033754;28;20035;-51
2023/09/20 13:14:42;;;;;;;1.27;0.80;;;26.70;48.40;;;;;;5034004;28;20108;-53
2023/09/20 13:17:09;;;;;;;2.55;0.80;;;26.60;48.20;;;;;;5029448;28;20441;-54
2023/09/20 13:19:34;;;;;;;1.92;0.88;;;26.60;48.20;;;;;;5021814;28;20433;-48
2023/09/20 13:22:01;;;;;;;1.98;0.90;;;26.50;48.10;;;;;;5035160;28;20033;-52
2023/09/20 13:24:27;;;;;;;1.25;0.73;;;26.50;48.10;;;;;;5048775;28;20090;-52
2023/09/20 13:26:53;;;;;;;2.17;0.80;;;26.50;48.10;;;;;;5016239;28;20523;-56
2023/09/20 13:29:19;;;;;;;1.50;0.82;;;26.40;48.20;;;;;;5040797;28;20350;-50
2023/09/20 13:31:46;;;;;;;1.40;0.70;;;26.40;48.20;;;;;;5034822;28;20024;-47
2023/09/20 13:34:15;;;;;;;1.52;0.95;;;26.30;48.30;;;;;;5046548;28;20476;-49